Portada
METAR-TAF:

METAR-TAF

Aeroports :

Red Oak Municipal Airport

Red Oak, Iowa, Estats Units d'Amèrica

latitud: 41-01N, longitud: 095-16W, altitud: 318 m

Observació

L'informe es va fer fa 7 minuts, a les 15:15 UTC
Vent 10 kt del Sud amb ràfegues de 17 kt
Temperatura -2°C
Humitat 63%
Pressió 1014 hPa
Visibilitat: 16.1 km
Cel clar

METAR: KRDK 131515Z AUTO 19010G17KT 10SM CLR M02/M08 A2995 RMK AO2

Hora: 09:22 (15:22 UTC)


TAF: manca

Observacions i pronòstics meteorològics de més de 4000 aeroports (METAR i TAF).

Les estacions disponibles són els punts grocs i vermells al mapa.

Posi el ratolí al punt desitjat per veure el nom de l'estació.

Feu clic per veure les observacions i els pronòstics meteorològics.

Per canviar el mapa: feu clic els botons verds amb una creu de color negre per apropar; al botó verd amb un guió per allunyar la imatge; o en les fletxes verdes per a mapes adjacents.


METAR-TAF: